Terminal Aerodrome Forecast
Issued by NWS Aberdeen, SD

Home | Current Version | Previous Version | Text Only | Print | Product List | Glossary Off
Versions: 1 2 3 4 5 6 7 8 9 10 11 12 13 14 15 16 17 18 19 20 21 22 23 24 25 26 27 28 29 30 31 32 33 34 35 36 37 38
000 FTUS43 KABR 140131 AAR TAFABR TAF AMD KABR 140131Z 1402/1424 16010KT P6SM SCT150 FM141500 23007KT P6SM SCT150 FM141700 29006KT P6SM FEW050 SCT120 FM142100 35007KT P6SM FEW070 SCT100=

USA.gov is the U.S. government's official web portal to all federal, state and local government web resources and services.